createdAt,value
2019-03-05T00:00:36.910Z,99.90
2019-03-05T00:03:07.203Z,99.90
2019-03-05T00:05:37.622Z,99.90
2019-03-05T00:08:08.115Z,99.90
2019-03-05T00:10:38.530Z,99.90
2019-03-05T00:13:08.744Z,99.90
2019-03-05T00:15:39.401Z,99.90
2019-03-05T00:18:09.618Z,99.90
2019-03-05T00:20:39.844Z,99.90
2019-03-05T00:23:10.610Z,99.90
2019-03-05T00:25:40.806Z,99.90
2019-03-05T00:28:42.633Z,99.90
2019-03-05T00:31:27.914Z,99.90
2019-03-05T00:34:04.289Z,99.90
2019-03-05T00:36:40.594Z,99.90
2019-03-05T00:39:31.846Z,99.90
2019-03-05T00:42:10.790Z,99.90
2019-03-05T00:45:13.066Z,99.90
2019-03-05T00:48:01.348Z,99.90
2019-03-05T00:50:37.403Z,99.90
2019-03-05T00:53:28.798Z,99.90
2019-03-05T00:56:20.063Z,99.90
2019-03-05T00:58:56.215Z,99.90
2019-03-05T01:01:29.511Z,99.90
2019-03-05T01:04:14.586Z,99.90
2019-03-05T01:06:45.096Z,99.90
2019-03-05T01:09:17.534Z,99.90
2019-03-05T01:11:48.626Z,99.90
2019-03-05T01:14:19.285Z,99.90
2019-03-05T01:16:49.793Z,99.90
2019-03-05T01:19:20.056Z,99.90
2019-03-05T01:21:50.651Z,99.90
2019-03-05T01:24:21.315Z,99.90
2019-03-05T01:26:51.526Z,99.90
2019-03-05T01:29:22.034Z,99.90
2019-03-05T01:31:59.690Z,99.90
2019-03-05T01:34:31.530Z,99.90
2019-03-05T01:37:03.654Z,99.90
2019-03-05T01:39:44.509Z,99.90
2019-03-05T01:42:14.732Z,99.90
2019-03-05T01:44:44.956Z,99.90
2019-03-05T01:47:15.165Z,99.90
2019-03-05T01:49:45.630Z,99.90
2019-03-05T01:52:15.847Z,99.90
2019-03-05T01:54:46.280Z,99.90
2019-03-05T01:57:16.815Z,99.90
2019-03-05T01:59:47.033Z,99.90
2019-03-05T02:02:17.250Z,99.90
2019-03-05T02:04:47.475Z,99.90
2019-03-05T02:07:18.136Z,99.90
2019-03-05T02:09:48.359Z,99.90
2019-03-05T02:12:18.786Z,99.90
2019-03-05T02:14:49.007Z,99.90
2019-03-05T02:17:19.216Z,99.90
2019-03-05T02:19:49.421Z,99.90
2019-03-05T02:22:26.049Z,99.90
2019-03-05T02:25:02.330Z,99.90
2019-03-05T02:27:47.850Z,99.90
2019-03-05T02:30:50.040Z,99.90
2019-03-05T02:33:59.622Z,99.90
2019-03-05T02:36:54.011Z,99.90
2019-03-05T02:39:42.574Z,99.90
2019-03-05T02:42:18.891Z,99.90
2019-03-05T02:45:04.183Z,99.90
2019-03-05T02:47:40.499Z,99.90
2019-03-05T02:50:19.596Z,99.90
2019-03-05T02:53:08.303Z,99.90
2019-03-05T02:56:33.415Z,99.90
2019-03-05T02:59:03.497Z,99.90
2019-03-05T03:01:41.637Z,99.90
2019-03-05T03:04:13.511Z,99.90
2019-03-05T03:06:43.732Z,99.90
2019-03-05T03:09:26.012Z,99.90
2019-03-05T03:11:56.267Z,99.90
2019-03-05T03:14:26.454Z,99.90
2019-03-05T03:16:56.723Z,99.90
2019-03-05T03:19:27.233Z,99.90
2019-03-05T03:21:57.417Z,99.90
2019-03-05T03:24:28.191Z,99.90
2019-03-05T03:26:58.392Z,99.90
2019-03-05T03:29:28.605Z,99.90
2019-03-05T03:31:58.784Z,99.90
2019-03-05T03:34:29.000Z,99.90
2019-03-05T03:36:59.205Z,99.90
2019-03-05T03:39:29.415Z,99.90
2019-03-05T03:42:00.003Z,99.90
2019-03-05T03:44:30.223Z,99.90
2019-03-05T03:47:00.440Z,99.90
2019-03-05T03:49:30.954Z,99.90
2019-03-05T03:52:01.163Z,99.90
2019-03-05T03:54:31.710Z,99.90
2019-03-05T03:57:01.918Z,99.90
2019-03-05T03:59:32.139Z,99.90
2019-03-05T04:02:02.340Z,99.90
2019-03-05T04:04:32.786Z,99.90
2019-03-05T04:07:02.990Z,99.90
2019-03-05T04:09:33.207Z,99.90
2019-03-05T04:12:03.720Z,99.90
2019-03-05T04:14:34.122Z,99.90
2019-03-05T04:17:04.361Z,99.90
2019-03-05T04:19:35.499Z,99.90
2019-03-05T04:22:05.713Z,99.90
2019-03-05T04:24:35.901Z,99.90
2019-03-05T04:27:06.122Z,99.90
2019-03-05T04:29:36.311Z,99.90
2019-03-05T04:32:06.834Z,99.90
2019-03-05T04:34:37.030Z,99.90
2019-03-05T04:37:07.254Z,99.90
2019-03-05T04:39:37.722Z,99.90
2019-03-05T04:42:07.951Z,99.90
2019-03-05T04:44:39.777Z,99.90
2019-03-05T04:47:09.986Z,99.90
2019-03-05T04:49:44.774Z,99.90
2019-03-05T04:52:17.023Z,99.90
2019-03-05T04:54:47.554Z,99.90
2019-03-05T04:57:18.358Z,99.90
2019-03-05T04:59:48.545Z,99.90
2019-03-05T05:02:18.758Z,99.90
2019-03-05T05:04:48.966Z,99.90
2019-03-05T05:07:19.246Z,99.90
2019-03-05T05:09:49.512Z,99.90
2019-03-05T05:12:19.738Z,99.90
2019-03-05T05:14:49.933Z,99.90
2019-03-05T05:17:20.145Z,99.90
2019-03-05T05:19:50.340Z,99.90
2019-03-05T05:22:20.564Z,99.90
2019-03-05T05:24:50.759Z,99.90
2019-03-05T05:27:20.970Z,99.90
2019-03-05T05:29:51.169Z,99.90
2019-03-05T05:32:21.383Z,99.90
2019-03-05T05:34:51.874Z,99.90
2019-03-05T05:37:22.061Z,99.90
2019-03-05T05:40:20.993Z,99.90
2019-03-05T05:42:51.418Z,99.90
2019-03-05T05:45:34.155Z,99.90
2019-03-05T05:48:04.348Z,99.90
2019-03-05T05:50:34.563Z,99.90
2019-03-05T05:53:04.751Z,99.90
2019-03-05T05:55:35.218Z,99.90
2019-03-05T05:58:05.426Z,99.90
2019-03-05T06:00:37.443Z,99.90
2019-03-05T06:03:07.632Z,99.90
2019-03-05T06:05:37.842Z,99.90
2019-03-05T06:08:08.104Z,99.90
2019-03-05T06:10:38.402Z,99.90
2019-03-05T06:13:08.595Z,99.90
2019-03-05T06:15:38.888Z,99.90
2019-03-05T06:18:09.424Z,99.90
2019-03-05T06:20:42.459Z,99.90
2019-03-05T06:23:11.842Z,99.90
2019-03-05T06:25:42.072Z,99.90
2019-03-05T06:28:12.259Z,99.90
2019-03-05T06:30:43.238Z,99.90
2019-03-05T06:33:13.517Z,99.90
2019-03-05T06:35:44.047Z,99.90
2019-03-05T06:38:14.258Z,99.90
2019-03-05T06:40:44.467Z,99.90
2019-03-05T06:43:14.658Z,99.90
2019-03-05T06:45:45.161Z,99.90
2019-03-05T06:48:15.393Z,99.90
2019-03-05T06:50:45.602Z,99.90
2019-03-05T06:53:15.799Z,99.90
2019-03-05T06:55:46.375Z,99.90
2019-03-05T06:58:16.587Z,99.90
2019-03-05T07:00:46.797Z,99.90
2019-03-05T07:03:17.018Z,99.90
2019-03-05T07:06:23.504Z,99.90
2019-03-05T07:09:11.802Z,99.90
2019-03-05T07:12:00.346Z,99.90
2019-03-05T07:14:41.910Z,99.90
2019-03-05T07:17:20.722Z,99.90
2019-03-05T07:20:16.482Z,99.90
2019-03-05T07:23:17.279Z,99.90
2019-03-05T07:25:47.466Z,99.90
2019-03-05T07:28:17.969Z,99.90
2019-03-05T07:30:48.503Z,99.90
2019-03-05T07:33:19.414Z,99.90
2019-03-05T07:35:49.986Z,99.90
2019-03-05T07:38:20.216Z,99.90
2019-03-05T07:40:50.410Z,99.90
2019-03-05T07:43:20.625Z,99.90
2019-03-05T07:45:50.813Z,99.90
2019-03-05T07:48:21.053Z,99.90
2019-03-05T07:50:51.542Z,99.90
2019-03-05T07:53:22.066Z,99.90
2019-03-05T07:55:52.250Z,99.90
2019-03-05T07:58:22.457Z,99.90
2019-03-05T08:00:52.930Z,99.90
2019-03-05T08:03:23.125Z,99.90
2019-03-05T08:05:53.329Z,99.90
2019-03-05T08:09:00.364Z,99.90
2019-03-05T08:11:31.830Z,99.90
2019-03-05T08:14:25.071Z,99.90
2019-03-05T08:16:55.594Z,99.90
2019-03-05T08:19:25.802Z,99.90
2019-03-05T08:21:56.002Z,99.90
2019-03-05T08:24:26.230Z,99.90
2019-03-05T08:26:56.419Z,99.90
2019-03-05T08:29:26.919Z,99.90
2019-03-05T08:31:57.441Z,99.90
2019-03-05T08:34:27.977Z,99.90
2019-03-05T08:36:58.191Z,99.90
2019-03-05T08:39:28.388Z,99.90
2019-03-05T08:41:58.614Z,99.90
2019-03-05T08:44:28.829Z,99.90
2019-03-05T08:46:59.037Z,99.90
2019-03-05T08:49:29.308Z,99.90
2019-03-05T08:51:59.535Z,99.90
2019-03-05T08:54:29.715Z,99.90
2019-03-05T08:56:59.942Z,99.90
2019-03-05T08:59:32.526Z,99.90
2019-03-05T09:02:02.079Z,99.90
2019-03-05T09:04:32.522Z,99.90
2019-03-05T09:07:02.809Z,99.90
2019-03-05T09:09:33.086Z,99.90
2019-03-05T09:12:03.582Z,99.90
2019-03-05T09:14:34.599Z,99.90
2019-03-05T09:17:05.562Z,99.90
2019-03-05T09:19:35.756Z,99.90
2019-03-05T09:22:06.152Z,99.90
2019-03-05T09:24:36.334Z,99.90
2019-03-05T09:27:06.553Z,99.90
2019-03-05T09:29:36.753Z,99.90
2019-03-05T09:32:06.973Z,99.90
2019-03-05T09:34:37.170Z,99.90
2019-03-05T09:37:07.453Z,99.90
2019-03-05T09:39:37.641Z,99.90
2019-03-05T09:42:07.875Z,99.90
2019-03-05T09:44:38.058Z,99.90
2019-03-05T09:47:08.297Z,99.90
2019-03-05T09:49:39.017Z,99.90
2019-03-05T09:52:09.241Z,99.90
2019-03-05T09:54:39.973Z,99.90
2019-03-05T09:57:10.268Z,99.90
2019-03-05T09:59:40.511Z,99.90
2019-03-05T10:02:10.690Z,99.90
2019-03-05T10:04:41.458Z,99.90
2019-03-05T10:07:18.853Z,99.90
2019-03-05T10:09:44.130Z,99.90
2019-03-05T10:12:14.325Z,99.90
2019-03-05T10:14:45.105Z,99.90
2019-03-05T10:17:15.290Z,99.90
2019-03-05T10:19:46.067Z,99.90
2019-03-05T10:22:16.829Z,99.90
2019-03-05T10:24:47.561Z,99.90
2019-03-05T10:27:18.339Z,99.90
2019-03-05T10:29:49.189Z,99.90
2019-03-05T10:32:19.986Z,99.90
2019-03-05T10:34:50.926Z,99.90
2019-03-05T10:37:21.742Z,99.90
2019-03-05T10:39:52.666Z,99.90
2019-03-05T10:42:23.687Z,99.90
2019-03-05T10:44:54.617Z,99.90
2019-03-05T10:47:25.365Z,99.90
2019-03-05T10:49:56.402Z,99.90
2019-03-05T10:52:27.234Z,99.90
2019-03-05T10:54:57.976Z,99.90
2019-03-05T10:57:28.750Z,99.90
2019-03-05T10:59:59.505Z,99.90
2019-03-05T11:02:30.702Z,99.90
2019-03-05T11:05:01.714Z,99.90
2019-03-05T11:07:32.473Z,99.90
2019-03-05T11:10:03.855Z,99.90
2019-03-05T11:12:34.781Z,99.90
2019-03-05T11:15:08.890Z,99.90
2019-03-05T11:17:39.741Z,99.90
2019-03-05T11:20:10.832Z,99.90
2019-03-05T11:22:41.943Z,99.90
2019-03-05T11:25:14.625Z,99.90
2019-03-05T11:27:45.646Z,99.90
2019-03-05T11:30:35.254Z,99.90
2019-03-05T11:32:57.250Z,99.90
2019-03-05T11:35:30.073Z,99.90
2019-03-05T11:38:01.078Z,99.90
2019-03-05T11:40:32.329Z,99.90
2019-03-05T11:43:10.337Z,99.90
2019-03-05T11:45:42.590Z,99.90
2019-03-05T11:48:14.468Z,99.90
2019-03-05T11:50:45.555Z,99.90
2019-03-05T11:53:16.329Z,99.90
2019-03-05T11:55:47.057Z,99.90
2019-03-05T11:58:17.848Z,99.90
2019-03-05T12:00:50.782Z,99.90
2019-03-05T12:03:21.974Z,99.90
2019-03-05T12:05:52.739Z,99.90
2019-03-05T12:08:23.673Z,99.90
2019-03-05T12:10:54.679Z,99.90
2019-03-05T12:13:25.643Z,99.90
2019-03-05T12:15:56.563Z,99.90
2019-03-05T12:18:27.360Z,99.90
2019-03-05T12:20:58.089Z,99.90
2019-03-05T12:23:29.192Z,99.90
2019-03-05T12:26:00.230Z,99.90
2019-03-05T12:28:31.022Z,99.90
2019-03-05T12:31:01.763Z,99.90
2019-03-05T12:33:33.031Z,99.90
2019-03-05T12:36:06.771Z,99.90
2019-03-05T12:38:37.562Z,99.90
2019-03-05T12:41:08.658Z,99.90
2019-03-05T12:43:39.426Z,99.90
2019-03-05T12:46:10.436Z,99.90
2019-03-05T12:48:41.206Z,99.90
2019-03-05T12:51:12.042Z,99.90
2019-03-05T12:53:42.841Z,99.90
2019-03-05T12:56:23.333Z,99.90
2019-03-05T12:58:46.453Z,99.90
2019-03-05T13:01:17.506Z,99.90
2019-03-05T13:03:48.274Z,99.90
2019-03-05T13:06:19.026Z,99.90
2019-03-05T13:08:50.129Z,99.90
2019-03-05T13:11:20.866Z,99.90
2019-03-05T13:14:05.388Z,99.90
2019-03-05T13:16:24.427Z,99.90
2019-03-05T13:18:58.258Z,99.90
2019-03-05T13:21:28.489Z,99.90
2019-03-05T13:23:59.580Z,99.90
2019-03-05T13:26:30.325Z,99.90
2019-03-05T13:29:01.338Z,99.90
2019-03-05T13:31:32.390Z,99.90
2019-03-05T13:34:03.166Z,99.90
2019-03-05T13:36:33.942Z,99.90
2019-03-05T13:39:05.953Z,99.90
2019-03-05T13:41:36.734Z,99.90
2019-03-05T13:44:10.603Z,99.90
2019-03-05T13:46:41.365Z,99.90
2019-03-05T13:49:24.004Z,99.90
2019-03-05T13:52:10.198Z,99.90
2019-03-05T13:55:02.355Z,99.90
2019-03-05T13:57:43.618Z,99.90
2019-03-05T14:00:15.273Z,99.90
2019-03-05T14:03:06.741Z,99.90
2019-03-05T14:05:55.571Z,99.90
2019-03-05T14:08:47.538Z,99.80
2019-03-05T14:11:18.473Z,99.50
2019-03-05T14:13:49.221Z,98.40
2019-03-05T14:16:21.782Z,99.00
2019-03-05T14:18:52.525Z,98.80
2019-03-05T14:21:23.331Z,98.60
2019-03-05T14:23:54.347Z,97.30
2019-03-05T14:26:25.278Z,98.90
2019-03-05T14:28:56.009Z,98.20
2019-03-05T14:31:27.054Z,97.40
2019-03-05T14:33:57.803Z,97.90
2019-03-05T14:36:28.952Z,96.20
2019-03-05T14:39:01.653Z,96.40
2019-03-05T14:41:32.430Z,97.80
2019-03-05T14:44:03.372Z,97.70
2019-03-05T14:46:34.258Z,97.80
2019-03-05T14:49:05.392Z,97.50
2019-03-05T14:51:36.552Z,95.90
2019-03-05T14:54:07.546Z,95.10
2019-03-05T14:56:38.629Z,93.90
2019-03-05T14:59:09.413Z,93.70
2019-03-05T15:01:40.525Z,93.90
2019-03-05T15:04:11.543Z,94.00
2019-03-05T15:06:42.399Z,95.60
2019-03-05T15:09:14.004Z,93.80
2019-03-05T15:11:44.820Z,96.00
2019-03-05T15:14:15.977Z,94.90
2019-03-05T15:16:46.748Z,96.60
2019-03-05T15:19:21.628Z,95.80
2019-03-05T15:21:50.631Z,95.50
2019-03-05T15:24:21.489Z,95.50
2019-03-05T15:26:52.683Z,96.60
2019-03-05T15:29:23.754Z,96.30
2019-03-05T15:31:54.871Z,96.60
2019-03-05T15:34:25.741Z,96.90
2019-03-05T15:36:56.845Z,96.30
2019-03-05T15:39:28.150Z,96.30
2019-03-05T15:41:58.981Z,96.90
2019-03-05T15:44:29.935Z,97.00
2019-03-05T15:47:00.715Z,97.30
2019-03-05T15:49:31.769Z,97.50
2019-03-05T15:52:02.821Z,97.00
2019-03-05T15:54:33.594Z,96.80
2019-03-05T15:57:04.344Z,97.70
2019-03-05T15:59:35.194Z,97.70
2019-03-05T16:02:06.061Z,96.50
2019-03-05T16:04:39.678Z,97.70
2019-03-05T16:07:11.003Z,97.90
2019-03-05T16:09:43.918Z,97.80
2019-03-05T16:12:14.938Z,97.60
2019-03-05T16:14:47.517Z,97.70
2019-03-05T16:17:18.709Z,97.50
2019-03-05T16:19:52.800Z,98.30
2019-03-05T16:22:24.279Z,98.70
2019-03-05T16:24:54.531Z,98.30
2019-03-05T16:27:30.036Z,98.90
2019-03-05T16:29:58.249Z,99.40
2019-03-05T16:32:33.935Z,99.60
2019-03-05T16:35:23.362Z,99.90
2019-03-05T16:37:57.681Z,99.90
2019-03-05T16:40:30.512Z,99.90
2019-03-05T16:43:18.242Z,99.90
2019-03-05T16:45:59.465Z,99.90
2019-03-05T16:48:47.259Z,99.90
2019-03-05T16:51:19.738Z,99.90
2019-03-05T16:53:52.847Z,99.90
2019-03-05T16:56:27.857Z,99.90
2019-03-05T16:59:09.618Z,99.90
2019-03-05T17:01:59.919Z,99.90
2019-03-05T17:04:47.647Z,99.90
2019-03-05T17:07:25.769Z,99.90
2019-03-05T17:10:07.186Z,99.90
2019-03-05T17:12:38.013Z,99.90
2019-03-05T17:15:10.322Z,99.90
2019-03-05T17:17:41.083Z,99.90
2019-03-05T17:20:12.142Z,99.90
2019-03-05T17:22:43.150Z,99.90
2019-03-05T17:25:20.306Z,99.90
2019-03-05T17:27:51.694Z,99.90
2019-03-05T17:30:23.972Z,99.90
2019-03-05T17:32:55.692Z,99.90
2019-03-05T17:35:26.470Z,99.90
2019-03-05T17:37:57.516Z,99.90
2019-03-05T17:40:28.554Z,99.90
2019-03-05T17:42:59.330Z,99.90
2019-03-05T17:45:30.344Z,99.90
2019-03-05T17:48:01.471Z,99.90
2019-03-05T17:50:32.249Z,99.90
2019-03-05T17:53:03.009Z,99.90
2019-03-05T17:55:34.192Z,99.90
2019-03-05T17:58:05.798Z,99.90
2019-03-05T18:00:41.408Z,99.90
2019-03-05T18:03:12.449Z,99.90
2019-03-05T18:05:43.523Z,99.90
2019-03-05T18:08:14.526Z,99.90
2019-03-05T18:10:45.326Z,99.90
2019-03-05T18:13:16.073Z,99.90
2019-03-05T18:15:46.847Z,99.90
2019-03-05T18:18:18.307Z,99.90
2019-03-05T18:20:49.094Z,99.90
2019-03-05T18:23:19.842Z,99.90
2019-03-05T18:25:50.621Z,99.90
2019-03-05T18:28:21.657Z,99.90
2019-03-05T18:30:52.469Z,99.90
2019-03-05T18:33:23.382Z,99.90
2019-03-05T18:35:54.598Z,99.90
2019-03-05T18:38:25.746Z,99.90
2019-03-05T18:40:56.559Z,99.90
2019-03-05T18:43:27.378Z,99.90
2019-03-05T18:45:58.225Z,99.90
2019-03-05T18:48:29.286Z,99.90
2019-03-05T18:51:00.405Z,99.90
2019-03-05T18:53:31.486Z,99.90
2019-03-05T18:56:02.244Z,99.90
2019-03-05T18:58:33.110Z,99.90
2019-03-05T19:01:04.033Z,99.90
2019-03-05T19:03:35.162Z,99.90
2019-03-05T19:06:06.131Z,99.90
2019-03-05T19:08:36.906Z,99.90
2019-03-05T19:11:07.965Z,99.90
2019-03-05T19:13:38.742Z,99.90
2019-03-05T19:16:09.509Z,99.90
2019-03-05T19:18:40.590Z,99.90
2019-03-05T19:21:11.718Z,99.90
2019-03-05T19:23:42.101Z,99.90
2019-03-05T19:26:12.769Z,99.90
2019-03-05T19:28:43.938Z,99.90
2019-03-05T19:31:14.701Z,99.90
2019-03-05T19:33:45.518Z,99.90
2019-03-05T19:36:16.291Z,99.90
2019-03-05T19:38:47.077Z,99.90
2019-03-05T19:41:17.817Z,99.90
2019-03-05T19:43:48.049Z,99.90
2019-03-05T19:46:18.243Z,99.90
2019-03-05T19:48:49.322Z,99.90
2019-03-05T19:51:20.366Z,99.90
2019-03-05T19:53:51.141Z,99.90
2019-03-05T19:56:22.162Z,99.90
2019-03-05T19:58:53.195Z,99.90
2019-03-05T20:01:25.047Z,99.90
2019-03-05T20:03:55.836Z,99.90
2019-03-05T20:06:26.937Z,99.90
2019-03-05T20:08:58.182Z,99.90
2019-03-05T20:11:28.725Z,99.90
2019-03-05T20:13:59.784Z,99.90
2019-03-05T20:16:30.040Z,99.90
2019-03-05T20:19:00.231Z,99.90
2019-03-05T20:21:30.528Z,99.90
2019-03-05T20:24:00.809Z,99.90
2019-03-05T20:26:31.158Z,99.90
2019-03-05T20:29:01.776Z,99.90
2019-03-05T20:31:32.080Z,99.90
2019-03-05T20:34:05.529Z,99.90
2019-03-05T20:36:36.852Z,99.90
2019-03-05T20:39:07.838Z,99.90
2019-03-05T20:41:39.104Z,99.90
2019-03-05T20:44:09.572Z,99.90
2019-03-05T20:46:41.179Z,99.90
2019-03-05T20:49:11.935Z,99.90
2019-03-05T20:51:44.186Z,99.90
2019-03-05T20:54:14.532Z,99.90
2019-03-05T20:56:45.367Z,99.90
2019-03-05T20:59:16.010Z,99.90
2019-03-05T21:01:46.323Z,99.90
2019-03-05T21:04:16.671Z,99.90
2019-03-05T21:06:46.914Z,99.90
2019-03-05T21:09:21.586Z,99.90
2019-03-05T21:11:52.082Z,99.90
2019-03-05T21:14:22.692Z,99.90
2019-03-05T21:16:53.058Z,99.90
2019-03-05T21:19:23.319Z,99.90
2019-03-05T21:21:53.508Z,99.90
2019-03-05T21:24:24.131Z,99.90
2019-03-05T21:26:54.634Z,99.90
2019-03-05T21:29:24.855Z,99.90
2019-03-05T21:31:55.056Z,99.90
2019-03-05T21:34:25.271Z,99.90
2019-03-05T21:36:55.474Z,99.90
2019-03-05T21:39:25.693Z,99.90
2019-03-05T21:41:56.287Z,99.90
2019-03-05T21:44:26.504Z,99.90
2019-03-05T21:46:56.883Z,99.90
2019-03-05T21:49:27.105Z,99.90
2019-03-05T21:51:57.304Z,99.90
2019-03-05T21:54:27.807Z,99.90
2019-03-05T21:56:58.335Z,99.90
2019-03-05T21:59:28.542Z,99.90
2019-03-05T22:01:58.742Z,99.90
2019-03-05T22:04:29.215Z,99.90
2019-03-05T22:06:59.434Z,99.90
2019-03-05T22:09:30.179Z,99.90
2019-03-05T22:12:00.717Z,99.90
2019-03-05T22:14:31.242Z,99.90
2019-03-05T22:17:01.469Z,99.90
2019-03-05T22:19:31.654Z,99.90
2019-03-05T22:22:01.867Z,99.90
2019-03-05T22:24:32.358Z,99.90
2019-03-05T22:27:02.883Z,99.90
2019-03-05T22:29:33.942Z,99.90
2019-03-05T22:32:04.585Z,99.90
2019-03-05T22:34:34.798Z,99.90
2019-03-05T22:37:05.022Z,99.90
2019-03-05T22:39:35.211Z,99.90
2019-03-05T22:42:06.075Z,99.90
2019-03-05T22:44:36.284Z,99.90
2019-03-05T22:47:06.839Z,99.90
2019-03-05T22:49:37.023Z,99.90
2019-03-05T22:52:07.246Z,99.90
2019-03-05T22:54:37.632Z,99.90
2019-03-05T22:57:07.849Z,99.90
2019-03-05T22:59:38.041Z,99.90
2019-03-05T23:02:08.449Z,99.90
2019-03-05T23:04:38.934Z,99.90
2019-03-05T23:07:10.168Z,99.90
2019-03-05T23:09:40.698Z,99.90
2019-03-05T23:12:11.257Z,99.90
2019-03-05T23:14:41.774Z,99.90
2019-03-05T23:17:12.566Z,99.90
2019-03-05T23:19:43.363Z,99.90
2019-03-05T23:22:15.091Z,99.90
2019-03-05T23:24:45.528Z,99.90
2019-03-05T23:27:16.685Z,99.90
2019-03-05T23:29:47.934Z,99.90
2019-03-05T23:32:19.057Z,99.90
2019-03-05T23:34:50.322Z,99.90
2019-03-05T23:37:21.465Z,99.90
2019-03-05T23:39:52.233Z,99.90
2019-03-05T23:42:23.563Z,99.90
2019-03-05T23:44:54.606Z,99.90
2019-03-05T23:47:25.642Z,99.90
2019-03-05T23:49:56.687Z,99.90
2019-03-05T23:52:27.467Z,99.90
2019-03-05T23:54:58.248Z,99.90
2019-03-05T23:57:29.025Z,99.90
